首页
METAR-TAF:

METAR-TAF

机场 :

基韋斯特, 佛罗里达州, 美国

纬度: 24-34-46N, 经度: 081-41-02W, 海拔: 1米

当前天气观测

该预报发布于1小时和7分钟前的15:56 UTC
风速12节,风向东转东南
温度 30°C
湿度 84%
气压 1016 hPa
能見度: 16.1公里
散云层高于2500英尺
多云层高于9000英尺
阴天层高于12000英尺

METAR: KNQX 051556Z 12012KT 10SM SCT025 BKN090 OVC120 30/27 A3000 RMK AO2 RAE56 TSE56 T1 SET P0000 T03000267 $

时间: 13:03 (17:03 UTC)

预报

预报有效从05日的 15点(UTC)到 06日的 15点(UTC)
风速14节,风向东南
能见度10公里或以上
散云层高于2500英尺
多云层高于10000英尺
阴天层高于16000英尺
附近有阵雨
短暂存在
从 05日的 16点(UTC)到 05日的 18点(UTC)
能見度: 9000
多云层高于2500英尺
小阵雨
成为
从 05日的 19点(UTC)到 05日的 21点(UTC)
风速15节,风向东南
能见度10公里或以上
少量云层高于2000英尺, 积雨云.
散云层高于2500英尺
多云层高于8000英尺
阴天层高于16000英尺
附近有雷暴
短暂存在
从 05日的 22点(UTC)到 06日的 03点(UTC)
风速20节,风向,有时为30节阵风
能見度: 3200
多云层高于2000英尺, 积雨云.
雷暴, 大雨
从 06日的 0400点(UTC)
风速14节,风向东南,有时为22节阵风
能见度10公里或以上
散云层高于2500英尺
多云层高于5000英尺
阴天层高于10000英尺
附近有阵雨

TAF: KNQX 0515/0615 13014KT 9999 VCSH SCT025 BKN100 OVC160 QNH2996INS TEMPO 0516/0518 9000 -SHRA BKN025 BECMG 0519/0521 13015KT 9999 VCTS FEW020CB SCT025 BKN080 OVC160 QNH2990INS TEMPO 0522/0603 17020G30KT 3200 +TSRA BKN020CB FM060400 13014G22KT 9999 VCSH SCT025 BKN050 OVC100 QNH2992INS T31/0519Z T27/0610Z FN20027

超过4000个机场的气象观测和天气预报(METAR&TAF报告)。

可查询的气象台以黄色和红色小点在地图上表示。

将鼠标移到小点上方,可查看气象台名称。

然后点击查看天气观测和预报。

如需切换地图:点击带黑十字的绿色按钮放大地图;点击带横线的绿色按钮缩小地图;或者点击绿色箭头查看邻近地区的地图。


METAR-TAF: